sensor_id;sensor_type;location;lat;lon;timestamp;temperature;humidity
7502;DHT22;3792;47.740;7.606;2023-04-06T00:00:38;3.20;99.90
7502;DHT22;3792;47.740;7.606;2023-04-06T00:03:05;3.20;99.90
7502;DHT22;3792;47.740;7.606;2023-04-06T00:05:32;3.10;99.90
7502;DHT22;3792;47.740;7.606;2023-04-06T00:08:00;3.10;99.90
7502;DHT22;3792;47.740;7.606;2023-04-06T00:10:27;3.10;99.90
7502;DHT22;3792;47.740;7.606;2023-04-06T00:12:54;3.10;99.90
7502;DHT22;3792;47.740;7.606;2023-04-06T00:15:22;3.10;99.90
7502;DHT22;3792;47.740;7.606;2023-04-06T00:17:51;3.10;99.90
7502;DHT22;3792;47.740;7.606;2023-04-06T00:20:18;3.10;99.90
7502;DHT22;3792;47.740;7.606;2023-04-06T00:22:45;3.10;99.90
7502;DHT22;3792;47.740;7.606;2023-04-06T00:25:12;3.10;99.90
7502;DHT22;3792;47.740;7.606;2023-04-06T00:27:41;3.00;99.90
7502;DHT22;3792;47.740;7.606;2023-04-06T00:30:09;3.00;99.90
7502;DHT22;3792;47.740;7.606;2023-04-06T00:32:36;2.90;99.90
7502;DHT22;3792;47.740;7.606;2023-04-06T00:35:05;2.90;99.90
7502;DHT22;3792;47.740;7.606;2023-04-06T00:37:33;2.90;99.90
7502;DHT22;3792;47.740;7.606;2023-04-06T00:40:00;2.90;99.90
7502;DHT22;3792;47.740;7.606;2023-04-06T00:42:27;2.90;99.90
7502;DHT22;3792;47.740;7.606;2023-04-06T00:44:56;2.90;99.90
7502;DHT22;3792;47.740;7.606;2023-04-06T00:47:23;2.90;99.90
7502;DHT22;3792;47.740;7.606;2023-04-06T00:49:51;2.90;99.90
7502;DHT22;3792;47.740;7.606;2023-04-06T00:52:20;2.90;99.90
7502;DHT22;3792;47.740;7.606;2023-04-06T00:54:48;2.90;99.90
7502;DHT22;3792;47.740;7.606;2023-04-06T00:57:15;2.90;99.90
7502;DHT22;3792;47.740;7.606;2023-04-06T00:59:42;3.00;99.90
7502;DHT22;3792;47.740;7.606;2023-04-06T01:02:09;2.90;99.90
7502;DHT22;3792;47.740;7.606;2023-04-06T01:04:36;2.70;99.90
7502;DHT22;3792;47.740;7.606;2023-04-06T01:07:03;2.70;99.90
7502;DHT22;3792;47.740;7.606;2023-04-06T01:09:32;2.70;99.90
7502;DHT22;3792;47.740;7.606;2023-04-06T01:11:59;2.70;99.90
7502;DHT22;3792;47.740;7.606;2023-04-06T01:14:26;2.60;99.90
7502;DHT22;3792;47.740;7.606;2023-04-06T01:16:53;2.50;99.90
7502;DHT22;3792;47.740;7.606;2023-04-06T01:19:22;2.60;99.90
7502;DHT22;3792;47.740;7.606;2023-04-06T01:21:49;2.60;99.90
7502;DHT22;3792;47.740;7.606;2023-04-06T01:24:20;2.70;99.90
7502;DHT22;3792;47.740;7.606;2023-04-06T01:26:47;2.70;99.90
7502;DHT22;3792;47.740;7.606;2023-04-06T01:29:14;2.60;99.90
7502;DHT22;3792;47.740;7.606;2023-04-06T01:31:41;2.60;99.90
7502;DHT22;3792;47.740;7.606;2023-04-06T01:34:08;2.60;99.90
7502;DHT22;3792;47.740;7.606;2023-04-06T01:36:35;2.60;99.90
7502;DHT22;3792;47.740;7.606;2023-04-06T01:39:03;2.40;99.90
7502;DHT22;3792;47.740;7.606;2023-04-06T01:41:31;2.40;99.90
7502;DHT22;3792;47.740;7.606;2023-04-06T01:43:58;2.40;99.90
7502;DHT22;3792;47.740;7.606;2023-04-06T01:46:25;2.40;99.90
7502;DHT22;3792;47.740;7.606;2023-04-06T01:48:52;2.40;99.90
7502;DHT22;3792;47.740;7.606;2023-04-06T01:51:19;2.40;99.90
7502;DHT22;3792;47.740;7.606;2023-04-06T01:53:46;2.30;99.90
7502;DHT22;3792;47.740;7.606;2023-04-06T01:56:14;2.30;99.90
7502;DHT22;3792;47.740;7.606;2023-04-06T01:58:43;2.30;99.90
7502;DHT22;3792;47.740;7.606;2023-04-06T02:01:10;2.30;99.90
7502;DHT22;3792;47.740;7.606;2023-04-06T02:03:37;2.30;99.90
7502;DHT22;3792;47.740;7.606;2023-04-06T02:06:04;2.30;99.90
7502;DHT22;3792;47.740;7.606;2023-04-06T02:08:31;2.30;99.90
7502;DHT22;3792;47.740;7.606;2023-04-06T02:10:58;2.30;99.90
7502;DHT22;3792;47.740;7.606;2023-04-06T02:13:25;2.10;99.90
7502;DHT22;3792;47.740;7.606;2023-04-06T02:15:54;1.90;99.90
7502;DHT22;3792;47.740;7.606;2023-04-06T02:18:21;2.00;99.90
7502;DHT22;3792;47.740;7.606;2023-04-06T02:20:48;2.10;99.90
7502;DHT22;3792;47.740;7.606;2023-04-06T02:23:15;2.10;99.90
7502;DHT22;3792;47.740;7.606;2023-04-06T02:25:42;2.10;99.90
7502;DHT22;3792;47.740;7.606;2023-04-06T02:28:09;2.10;99.90
7502;DHT22;3792;47.740;7.606;2023-04-06T02:30:36;2.10;99.90
7502;DHT22;3792;47.740;7.606;2023-04-06T02:33:05;2.20;99.90
7502;DHT22;3792;47.740;7.606;2023-04-06T02:35:32;2.20;99.90
7502;DHT22;3792;47.740;7.606;2023-04-06T02:37:59;2.20;99.90
7502;DHT22;3792;47.740;7.606;2023-04-06T02:40:26;2.30;99.90
7502;DHT22;3792;47.740;7.606;2023-04-06T02:42:53;2.20;99.90
7502;DHT22;3792;47.740;7.606;2023-04-06T02:45:20;2.10;99.90
7502;DHT22;3792;47.740;7.606;2023-04-06T02:47:47;2.10;99.90
7502;DHT22;3792;47.740;7.606;2023-04-06T02:50:15;2.10;99.90
7502;DHT22;3792;47.740;7.606;2023-04-06T02:52:42;2.00;99.90
7502;DHT22;3792;47.740;7.606;2023-04-06T02:55:10;2.00;99.90
7502;DHT22;3792;47.740;7.606;2023-04-06T02:57:37;2.00;99.90
7502;DHT22;3792;47.740;7.606;2023-04-06T03:00:05;2.10;99.90
7502;DHT22;3792;47.740;7.606;2023-04-06T03:02:32;2.10;99.90
7502;DHT22;3792;47.740;7.606;2023-04-06T03:04:59;2.10;99.90
7502;DHT22;3792;47.740;7.606;2023-04-06T03:07:28;2.10;99.90
7502;DHT22;3792;47.740;7.606;2023-04-06T03:09:55;2.00;99.90
7502;DHT22;3792;47.740;7.606;2023-04-06T03:12:22;2.00;99.90
7502;DHT22;3792;47.740;7.606;2023-04-06T03:14:49;2.00;99.90
7502;DHT22;3792;47.740;7.606;2023-04-06T03:17:16;1.90;99.90
7502;DHT22;3792;47.740;7.606;2023-04-06T03:19:43;1.90;99.90
7502;DHT22;3792;47.740;7.606;2023-04-06T03:22:10;1.90;99.90
7502;DHT22;3792;47.740;7.606;2023-04-06T03:24:38;1.90;99.90
7502;DHT22;3792;47.740;7.606;2023-04-06T03:27:05;1.80;99.90
7502;DHT22;3792;47.740;7.606;2023-04-06T03:29:32;1.80;99.90
7502;DHT22;3792;47.740;7.606;2023-04-06T03:32:00;1.80;99.90
7502;DHT22;3792;47.740;7.606;2023-04-06T03:34:27;1.70;99.90
7502;DHT22;3792;47.740;7.606;2023-04-06T03:36:53;1.70;99.90
7502;DHT22;3792;47.740;7.606;2023-04-06T03:39:21;1.70;99.90
7502;DHT22;3792;47.740;7.606;2023-04-06T03:41:49;1.70;99.90
7502;DHT22;3792;47.740;7.606;2023-04-06T03:44:16;1.80;99.90
7502;DHT22;3792;47.740;7.606;2023-04-06T03:46:43;1.80;99.90
7502;DHT22;3792;47.740;7.606;2023-04-06T03:49:10;1.80;99.90
7502;DHT22;3792;47.740;7.606;2023-04-06T03:51:37;1.80;99.90
7502;DHT22;3792;47.740;7.606;2023-04-06T03:54:04;1.70;99.90
7502;DHT22;3792;47.740;7.606;2023-04-06T03:56:31;1.70;99.90
7502;DHT22;3792;47.740;7.606;2023-04-06T03:59:00;1.70;99.90
7502;DHT22;3792;47.740;7.606;2023-04-06T04:01:27;1.60;99.90
7502;DHT22;3792;47.740;7.606;2023-04-06T04:03:55;1.60;99.90
7502;DHT22;3792;47.740;7.606;2023-04-06T04:06:22;1.60;99.90
7502;DHT22;3792;47.740;7.606;2023-04-06T04:08:49;1.60;99.90
7502;DHT22;3792;47.740;7.606;2023-04-06T04:11:16;1.60;99.90
7502;DHT22;3792;47.740;7.606;2023-04-06T04:13:43;1.50;99.90
7502;DHT22;3792;47.740;7.606;2023-04-06T04:16:11;1.50;99.90
7502;DHT22;3792;47.740;7.606;2023-04-06T04:18:39;1.50;99.90
7502;DHT22;3792;47.740;7.606;2023-04-06T04:21:06;1.50;99.90
7502;DHT22;3792;47.740;7.606;2023-04-06T04:23:32;1.50;99.90
7502;DHT22;3792;47.740;7.606;2023-04-06T04:25:59;1.50;99.90
7502;DHT22;3792;47.740;7.606;2023-04-06T04:28:26;1.50;99.90
7502;DHT22;3792;47.740;7.606;2023-04-06T04:30:54;1.50;99.90
7502;DHT22;3792;47.740;7.606;2023-04-06T04:33:22;1.50;99.90
7502;DHT22;3792;47.740;7.606;2023-04-06T04:35:49;1.50;99.90
7502;DHT22;3792;47.740;7.606;2023-04-06T04:38:16;1.50;99.90
7502;DHT22;3792;47.740;7.606;2023-04-06T04:40:43;1.50;99.90
7502;DHT22;3792;47.740;7.606;2023-04-06T04:43:10;1.30;99.90
7502;DHT22;3792;47.740;7.606;2023-04-06T04:45:37;1.30;99.90
7502;DHT22;3792;47.740;7.606;2023-04-06T04:48:04;1.20;99.90
7502;DHT22;3792;47.740;7.606;2023-04-06T04:50:34;1.20;99.90
7502;DHT22;3792;47.740;7.606;2023-04-06T04:53:01;1.20;99.90
7502;DHT22;3792;47.740;7.606;2023-04-06T04:55:30;1.20;99.90
7502;DHT22;3792;47.740;7.606;2023-04-06T04:57:57;1.20;99.90
7502;DHT22;3792;47.740;7.606;2023-04-06T05:00:25;1.30;99.90
7502;DHT22;3792;47.740;7.606;2023-04-06T05:02:52;1.30;99.90
7502;DHT22;3792;47.740;7.606;2023-04-06T05:05:19;1.20;99.90
7502;DHT22;3792;47.740;7.606;2023-04-06T05:07:48;1.10;99.90
7502;DHT22;3792;47.740;7.606;2023-04-06T05:10:15;0.90;99.90
7502;DHT22;3792;47.740;7.606;2023-04-06T05:12:42;1.00;99.90
7502;DHT22;3792;47.740;7.606;2023-04-06T05:15:10;1.00;99.90
7502;DHT22;3792;47.740;7.606;2023-04-06T05:17:37;1.10;99.90
7502;DHT22;3792;47.740;7.606;2023-04-06T05:20:05;1.10;99.90
7502;DHT22;3792;47.740;7.606;2023-04-06T05:22:32;1.10;99.90
7502;DHT22;3792;47.740;7.606;2023-04-06T05:25:01;1.00;99.90
7502;DHT22;3792;47.740;7.606;2023-04-06T05:27:28;1.00;99.90
7502;DHT22;3792;47.740;7.606;2023-04-06T05:29:55;1.10;99.90
7502;DHT22;3792;47.740;7.606;2023-04-06T05:32:22;1.10;99.90
7502;DHT22;3792;47.740;7.606;2023-04-06T05:34:50;1.20;99.90
7502;DHT22;3792;47.740;7.606;2023-04-06T05:37:17;1.30;99.90
7502;DHT22;3792;47.740;7.606;2023-04-06T05:39:44;1.30;99.90
7502;DHT22;3792;47.740;7.606;2023-04-06T05:42:12;1.40;99.90
7502;DHT22;3792;47.740;7.606;2023-04-06T05:44:40;1.50;99.90
7502;DHT22;3792;47.740;7.606;2023-04-06T05:47:08;1.60;99.90
7502;DHT22;3792;47.740;7.606;2023-04-06T05:49:35;1.70;99.90
7502;DHT22;3792;47.740;7.606;2023-04-06T05:52:02;1.70;99.90
7502;DHT22;3792;47.740;7.606;2023-04-06T05:54:30;1.80;99.90
7502;DHT22;3792;47.740;7.606;2023-04-06T05:56:57;1.80;99.90
7502;DHT22;3792;47.740;7.606;2023-04-06T05:59:25;1.80;99.90
7502;DHT22;3792;47.740;7.606;2023-04-06T06:01:52;1.90;99.90
7502;DHT22;3792;47.740;7.606;2023-04-06T06:04:19;1.90;99.90
7502;DHT22;3792;47.740;7.606;2023-04-06T06:06:46;2.00;99.90
7502;DHT22;3792;47.740;7.606;2023-04-06T06:09:13;2.00;99.90
7502;DHT22;3792;47.740;7.606;2023-04-06T06:11:40;1.90;99.90
7502;DHT22;3792;47.740;7.606;2023-04-06T06:14:07;2.00;99.90
7502;DHT22;3792;47.740;7.606;2023-04-06T06:16:36;2.20;99.90
7502;DHT22;3792;47.740;7.606;2023-04-06T06:19:03;2.40;99.90
7502;DHT22;3792;47.740;7.606;2023-04-06T06:21:30;2.50;99.90
7502;DHT22;3792;47.740;7.606;2023-04-06T06:23:57;2.70;99.90
7502;DHT22;3792;47.740;7.606;2023-04-06T06:26:24;2.90;99.90
7502;DHT22;3792;47.740;7.606;2023-04-06T06:28:51;3.00;99.90
7502;DHT22;3792;47.740;7.606;2023-04-06T06:31:18;3.10;99.90
7502;DHT22;3792;47.740;7.606;2023-04-06T06:33:47;3.40;99.90
7502;DHT22;3792;47.740;7.606;2023-04-06T06:36:16;3.60;99.90
7502;DHT22;3792;47.740;7.606;2023-04-06T06:38:43;3.80;99.90
7502;DHT22;3792;47.740;7.606;2023-04-06T06:41:10;4.10;99.90
7502;DHT22;3792;47.740;7.606;2023-04-06T06:43:38;4.30;99.90
7502;DHT22;3792;47.740;7.606;2023-04-06T06:46:05;4.50;99.90
7502;DHT22;3792;47.740;7.606;2023-04-06T06:48:32;4.70;99.90
7502;DHT22;3792;47.740;7.606;2023-04-06T06:51:00;4.90;99.90
7502;DHT22;3792;47.740;7.606;2023-04-06T06:53:28;4.80;99.90
7502;DHT22;3792;47.740;7.606;2023-04-06T06:55:55;4.70;99.90
7502;DHT22;3792;47.740;7.606;2023-04-06T06:58:22;5.00;99.90
7502;DHT22;3792;47.740;7.606;2023-04-06T07:00:49;5.20;99.90
7502;DHT22;3792;47.740;7.606;2023-04-06T07:03:15;5.30;99.90
7502;DHT22;3792;47.740;7.606;2023-04-06T07:05:45;5.40;99.90
7502;DHT22;3792;47.740;7.606;2023-04-06T07:08:20;5.60;99.60
7502;DHT22;3792;47.740;7.606;2023-04-06T07:10:47;5.60;99.70
7502;DHT22;3792;47.740;7.606;2023-04-06T07:13:14;5.70;99.30
7502;DHT22;3792;47.740;7.606;2023-04-06T07:15:46;5.80;99.20
7502;DHT22;3792;47.740;7.606;2023-04-06T07:18:13;6.00;98.20
7502;DHT22;3792;47.740;7.606;2023-04-06T07:20:40;6.30;99.00
7502;DHT22;3792;47.740;7.606;2023-04-06T07:23:07;6.50;98.00
7502;DHT22;3792;47.740;7.606;2023-04-06T07:25:35;6.70;97.50
7502;DHT22;3792;47.740;7.606;2023-04-06T07:28:03;6.90;96.30
7502;DHT22;3792;47.740;7.606;2023-04-06T07:30:30;7.00;95.40
7502;DHT22;3792;47.740;7.606;2023-04-06T07:32:57;7.10;95.60
7502;DHT22;3792;47.740;7.606;2023-04-06T07:35:25;7.30;95.10
7502;DHT22;3792;47.740;7.606;2023-04-06T07:37:53;7.50;94.90
7502;DHT22;3792;47.740;7.606;2023-04-06T07:40:20;7.70;95.20
7502;DHT22;3792;47.740;7.606;2023-04-06T07:42:49;7.90;94.50
7502;DHT22;3792;47.740;7.606;2023-04-06T07:45:16;8.00;94.30
7502;DHT22;3792;47.740;7.606;2023-04-06T07:47:43;8.20;93.50
7502;DHT22;3792;47.740;7.606;2023-04-06T07:50:10;8.30;93.30
7502;DHT22;3792;47.740;7.606;2023-04-06T07:52:38;8.40;92.60
7502;DHT22;3792;47.740;7.606;2023-04-06T07:55:05;8.60;92.40
7502;DHT22;3792;47.740;7.606;2023-04-06T07:57:32;8.70;92.90
7502;DHT22;3792;47.740;7.606;2023-04-06T08:00:01;8.70;92.10
7502;DHT22;3792;47.740;7.606;2023-04-06T08:02:29;8.70;92.00
7502;DHT22;3792;47.740;7.606;2023-04-06T08:04:56;8.70;92.80
7502;DHT22;3792;47.740;7.606;2023-04-06T08:07:23;8.90;92.90
7502;DHT22;3792;47.740;7.606;2023-04-06T08:09:51;9.00;92.60
7502;DHT22;3792;47.740;7.606;2023-04-06T08:12:18;9.20;91.70
7502;DHT22;3792;47.740;7.606;2023-04-06T08:14:45;9.40;91.60
7502;DHT22;3792;47.740;7.606;2023-04-06T08:17:13;9.50;91.00
7502;DHT22;3792;47.740;7.606;2023-04-06T08:19:42;9.50;90.50
7502;DHT22;3792;47.740;7.606;2023-04-06T08:22:09;9.60;90.00
7502;DHT22;3792;47.740;7.606;2023-04-06T08:24:36;9.60;87.80
7502;DHT22;3792;47.740;7.606;2023-04-06T08:27:03;9.70;87.10
7502;DHT22;3792;47.740;7.606;2023-04-06T08:29:30;9.60;84.40
7502;DHT22;3792;47.740;7.606;2023-04-06T08:31:57;9.70;86.80
7502;DHT22;3792;47.740;7.606;2023-04-06T08:34:26;10.10;85.80
7502;DHT22;3792;47.740;7.606;2023-04-06T08:36:53;10.40;84.30
7502;DHT22;3792;47.740;7.606;2023-04-06T08:39:20;10.60;84.00
7502;DHT22;3792;47.740;7.606;2023-04-06T08:41:51;10.80;81.40
7502;DHT22;3792;47.740;7.606;2023-04-06T08:44:19;11.00;80.00
7502;DHT22;3792;47.740;7.606;2023-04-06T08:46:46;11.00;79.60
7502;DHT22;3792;47.740;7.606;2023-04-06T08:49:14;11.00;77.50
7502;DHT22;3792;47.740;7.606;2023-04-06T08:51:44;11.10;76.80
7502;DHT22;3792;47.740;7.606;2023-04-06T08:54:11;11.00;77.50
7502;DHT22;3792;47.740;7.606;2023-04-06T08:56:39;11.10;79.10
7502;DHT22;3792;47.740;7.606;2023-04-06T08:59:06;11.20;78.10
7502;DHT22;3792;47.740;7.606;2023-04-06T09:01:39;11.20;77.30
7502;DHT22;3792;47.740;7.606;2023-04-06T09:04:07;11.30;77.80
7502;DHT22;3792;47.740;7.606;2023-04-06T09:06:36;11.40;78.00
7502;DHT22;3792;47.740;7.606;2023-04-06T09:09:05;11.50;76.80
7502;DHT22;3792;47.740;7.606;2023-04-06T09:11:45;11.50;76.20
7502;DHT22;3792;47.740;7.606;2023-04-06T09:14:12;11.50;76.20
7502;DHT22;3792;47.740;7.606;2023-04-06T09:16:39;11.60;77.00
7502;DHT22;3792;47.740;7.606;2023-04-06T09:19:07;11.70;74.20
7502;DHT22;3792;47.740;7.606;2023-04-06T09:21:35;11.80;74.60
7502;DHT22;3792;47.740;7.606;2023-04-06T09:24:05;12.00;72.90
7502;DHT22;3792;47.740;7.606;2023-04-06T09:26:43;11.90;73.80
7502;DHT22;3792;47.740;7.606;2023-04-06T09:29:10;11.90;72.40
7502;DHT22;3792;47.740;7.606;2023-04-06T09:31:48;11.90;73.40
7502;DHT22;3792;47.740;7.606;2023-04-06T09:34:20;11.80;74.30
7502;DHT22;3792;47.740;7.606;2023-04-06T09:36:48;11.90;75.20
7502;DHT22;3792;47.740;7.606;2023-04-06T09:39:20;12.00;75.00
7502;DHT22;3792;47.740;7.606;2023-04-06T09:41:51;12.00;72.80
7502;DHT22;3792;47.740;7.606;2023-04-06T09:44:18;12.00;73.40
7502;DHT22;3792;47.740;7.606;2023-04-06T09:46:46;12.00;73.50
7502;DHT22;3792;47.740;7.606;2023-04-06T09:49:14;12.10;75.40
7502;DHT22;3792;47.740;7.606;2023-04-06T09:51:45;12.20;73.20
7502;DHT22;3792;47.740;7.606;2023-04-06T09:54:20;12.40;72.40
7502;DHT22;3792;47.740;7.606;2023-04-06T09:56:51;12.40;68.10
7502;DHT22;3792;47.740;7.606;2023-04-06T09:59:23;12.40;67.30
7502;DHT22;3792;47.740;7.606;2023-04-06T10:01:54;12.40;65.50
7502;DHT22;3792;47.740;7.606;2023-04-06T10:04:30;12.40;65.70
7502;DHT22;3792;47.740;7.606;2023-04-06T10:07:02;12.50;67.50
7502;DHT22;3792;47.740;7.606;2023-04-06T10:09:31;12.50;69.60
7502;DHT22;3792;47.740;7.606;2023-04-06T10:12:03;12.70;73.50
7502;DHT22;3792;47.740;7.606;2023-04-06T10:14:32;13.00;72.70
7502;DHT22;3792;47.740;7.606;2023-04-06T10:17:01;13.30;67.60
7502;DHT22;3792;47.740;7.606;2023-04-06T10:19:34;13.20;66.50
7502;DHT22;3792;47.740;7.606;2023-04-06T10:22:03;13.30;67.30
7502;DHT22;3792;47.740;7.606;2023-04-06T10:24:33;13.30;67.20
7502;DHT22;3792;47.740;7.606;2023-04-06T10:27:02;13.10;66.50
7502;DHT22;3792;47.740;7.606;2023-04-06T10:29:42;13.10;66.20
7502;DHT22;3792;47.740;7.606;2023-04-06T10:32:10;13.30;65.30
7502;DHT22;3792;47.740;7.606;2023-04-06T10:34:37;13.20;63.10
7502;DHT22;3792;47.740;7.606;2023-04-06T10:37:12;13.20;64.90
7502;DHT22;3792;47.740;7.606;2023-04-06T10:39:47;13.30;65.00
7502;DHT22;3792;47.740;7.606;2023-04-06T10:42:14;13.30;64.60
7502;DHT22;3792;47.740;7.606;2023-04-06T10:44:44;13.40;63.90
7502;DHT22;3792;47.740;7.606;2023-04-06T10:47:18;13.40;63.10
7502;DHT22;3792;47.740;7.606;2023-04-06T10:49:45;13.60;63.30
7502;DHT22;3792;47.740;7.606;2023-04-06T10:52:12;13.60;62.30
7502;DHT22;3792;47.740;7.606;2023-04-06T10:54:41;13.70;63.60
7502;DHT22;3792;47.740;7.606;2023-04-06T10:57:12;13.80;63.20
7502;DHT22;3792;47.740;7.606;2023-04-06T10:59:42;13.80;62.20
7502;DHT22;3792;47.740;7.606;2023-04-06T11:02:19;14.00;63.40
7502;DHT22;3792;47.740;7.606;2023-04-06T11:04:54;14.40;64.70
7502;DHT22;3792;47.740;7.606;2023-04-06T11:07:25;14.60;62.40
7502;DHT22;3792;47.740;7.606;2023-04-06T11:09:53;14.80;63.10
7502;DHT22;3792;47.740;7.606;2023-04-06T11:12:25;14.70;63.80
7502;DHT22;3792;47.740;7.606;2023-04-06T11:14:54;14.50;64.20
7502;DHT22;3792;47.740;7.606;2023-04-06T11:17:25;14.60;61.10
7502;DHT22;3792;47.740;7.606;2023-04-06T11:19:53;14.70;60.10
7502;DHT22;3792;47.740;7.606;2023-04-06T11:22:20;14.70;58.70
7502;DHT22;3792;47.740;7.606;2023-04-06T11:24:47;14.70;56.70
7502;DHT22;3792;47.740;7.606;2023-04-06T11:27:15;14.70;55.60
7502;DHT22;3792;47.740;7.606;2023-04-06T11:29:44;14.60;54.20
7502;DHT22;3792;47.740;7.606;2023-04-06T11:32:20;14.70;56.50
7502;DHT22;3792;47.740;7.606;2023-04-06T11:34:47;14.80;60.30
7502;DHT22;3792;47.740;7.606;2023-04-06T11:37:15;14.90;57.80
7502;DHT22;3792;47.740;7.606;2023-04-06T11:39:46;14.90;55.90
7502;DHT22;3792;47.740;7.606;2023-04-06T11:42:21;14.90;55.30
7502;DHT22;3792;47.740;7.606;2023-04-06T11:44:53;15.00;55.50
7502;DHT22;3792;47.740;7.606;2023-04-06T11:47:20;14.80;55.90
7502;DHT22;3792;47.740;7.606;2023-04-06T11:49:53;14.80;55.20
7502;DHT22;3792;47.740;7.606;2023-04-06T11:52:26;14.80;54.70
7502;DHT22;3792;47.740;7.606;2023-04-06T11:54:55;14.80;52.90
7502;DHT22;3792;47.740;7.606;2023-04-06T11:57:23;14.90;52.40
7502;DHT22;3792;47.740;7.606;2023-04-06T11:59:52;14.70;52.30
7502;DHT22;3792;47.740;7.606;2023-04-06T12:02:19;14.80;51.80
7502;DHT22;3792;47.740;7.606;2023-04-06T12:04:46;14.90;51.40
7502;DHT22;3792;47.740;7.606;2023-04-06T12:07:13;14.90;50.50
7502;DHT22;3792;47.740;7.606;2023-04-06T12:09:40;14.70;51.10
7502;DHT22;3792;47.740;7.606;2023-04-06T12:12:07;14.60;52.50
7502;DHT22;3792;47.740;7.606;2023-04-06T12:14:35;14.70;52.80
7502;DHT22;3792;47.740;7.606;2023-04-06T12:17:03;14.50;53.60
7502;DHT22;3792;47.740;7.606;2023-04-06T12:19:30;14.60;53.10
7502;DHT22;3792;47.740;7.606;2023-04-06T12:21:57;14.40;52.80
7502;DHT22;3792;47.740;7.606;2023-04-06T12:24:24;14.30;52.90
7502;DHT22;3792;47.740;7.606;2023-04-06T12:26:51;14.20;52.30
7502;DHT22;3792;47.740;7.606;2023-04-06T12:29:19;14.10;53.10
7502;DHT22;3792;47.740;7.606;2023-04-06T12:31:46;14.00;53.60
7502;DHT22;3792;47.740;7.606;2023-04-06T12:34:15;14.00;53.90
7502;DHT22;3792;47.740;7.606;2023-04-06T12:36:42;14.10;54.10
7502;DHT22;3792;47.740;7.606;2023-04-06T12:39:09;14.40;54.00
7502;DHT22;3792;47.740;7.606;2023-04-06T12:41:37;14.60;55.70
7502;DHT22;3792;47.740;7.606;2023-04-06T12:44:06;14.60;53.00
7502;DHT22;3792;47.740;7.606;2023-04-06T12:46:33;14.80;53.40
7502;DHT22;3792;47.740;7.606;2023-04-06T12:49:00;14.90;53.20
7502;DHT22;3792;47.740;7.606;2023-04-06T12:51:30;14.80;56.00
7502;DHT22;3792;47.740;7.606;2023-04-06T12:53:57;14.90;55.20
7502;DHT22;3792;47.740;7.606;2023-04-06T12:56:25;15.00;55.00
7502;DHT22;3792;47.740;7.606;2023-04-06T12:58:52;15.00;54.80
7502;DHT22;3792;47.740;7.606;2023-04-06T13:01:19;15.00;54.40
7502;DHT22;3792;47.740;7.606;2023-04-06T13:03:46;15.00;53.30
7502;DHT22;3792;47.740;7.606;2023-04-06T13:06:13;15.00;53.70
7502;DHT22;3792;47.740;7.606;2023-04-06T13:08:42;15.10;55.40
7502;DHT22;3792;47.740;7.606;2023-04-06T13:11:09;15.00;52.70
7502;DHT22;3792;47.740;7.606;2023-04-06T13:13:37;14.80;53.40
7502;DHT22;3792;47.740;7.606;2023-04-06T13:16:06;14.80;54.80
7502;DHT22;3792;47.740;7.606;2023-04-06T13:18:34;14.60;54.00
7502;DHT22;3792;47.740;7.606;2023-04-06T13:21:04;14.60;53.30
7502;DHT22;3792;47.740;7.606;2023-04-06T13:23:31;14.60;54.90
7502;DHT22;3792;47.740;7.606;2023-04-06T13:26:01;14.50;56.90
7502;DHT22;3792;47.740;7.606;2023-04-06T13:28:29;14.20;55.40
7502;DHT22;3792;47.740;7.606;2023-04-06T13:30:58;14.40;56.00
7502;DHT22;3792;47.740;7.606;2023-04-06T13:33:26;14.50;56.00
7502;DHT22;3792;47.740;7.606;2023-04-06T13:35:53;14.60;54.50
7502;DHT22;3792;47.740;7.606;2023-04-06T13:38:20;14.60;55.00
7502;DHT22;3792;47.740;7.606;2023-04-06T13:40:49;14.70;55.10
7502;DHT22;3792;47.740;7.606;2023-04-06T13:43:18;14.70;57.30
7502;DHT22;3792;47.740;7.606;2023-04-06T13:45:49;14.80;55.30
7502;DHT22;3792;47.740;7.606;2023-04-06T13:48:16;14.80;53.90
7502;DHT22;3792;47.740;7.606;2023-04-06T13:50:45;14.70;54.90
7502;DHT22;3792;47.740;7.606;2023-04-06T13:53:12;14.80;55.70
7502;DHT22;3792;47.740;7.606;2023-04-06T13:55:39;14.70;54.70
7502;DHT22;3792;47.740;7.606;2023-04-06T13:58:06;14.60;54.90
7502;DHT22;3792;47.740;7.606;2023-04-06T14:00:35;14.50;55.10
7502;DHT22;3792;47.740;7.606;2023-04-06T14:03:02;14.40;56.20
7502;DHT22;3792;47.740;7.606;2023-04-06T14:05:31;14.40;57.30
7502;DHT22;3792;47.740;7.606;2023-04-06T14:07:58;14.50;57.50
7502;DHT22;3792;47.740;7.606;2023-04-06T14:10:25;14.50;56.90
7502;DHT22;3792;47.740;7.606;2023-04-06T14:12:53;14.50;55.80
7502;DHT22;3792;47.740;7.606;2023-04-06T14:15:21;14.50;56.10
7502;DHT22;3792;47.740;7.606;2023-04-06T14:17:50;14.50;56.10
7502;DHT22;3792;47.740;7.606;2023-04-06T14:20:18;14.50;55.90
7502;DHT22;3792;47.740;7.606;2023-04-06T14:22:45;14.50;55.80
7502;DHT22;3792;47.740;7.606;2023-04-06T14:25:15;14.60;56.90
7502;DHT22;3792;47.740;7.606;2023-04-06T14:27:42;14.60;55.70
7502;DHT22;3792;47.740;7.606;2023-04-06T14:30:10;14.70;56.00
7502;DHT22;3792;47.740;7.606;2023-04-06T14:32:37;14.60;55.40
7502;DHT22;3792;47.740;7.606;2023-04-06T14:35:07;14.70;55.40
7502;DHT22;3792;47.740;7.606;2023-04-06T14:37:34;14.70;55.30
7502;DHT22;3792;47.740;7.606;2023-04-06T14:40:01;14.80;56.30
7502;DHT22;3792;47.740;7.606;2023-04-06T14:42:28;15.00;55.40
7502;DHT22;3792;47.740;7.606;2023-04-06T14:44:55;15.00;55.50
7502;DHT22;3792;47.740;7.606;2023-04-06T14:47:22;15.00;55.10
7502;DHT22;3792;47.740;7.606;2023-04-06T14:49:50;14.90;55.40
7502;DHT22;3792;47.740;7.606;2023-04-06T14:52:19;14.70;56.80
7502;DHT22;3792;47.740;7.606;2023-04-06T14:54:46;14.60;57.10
7502;DHT22;3792;47.740;7.606;2023-04-06T14:57:13;14.50;58.00
7502;DHT22;3792;47.740;7.606;2023-04-06T14:59:40;14.40;58.50
7502;DHT22;3792;47.740;7.606;2023-04-06T15:02:07;14.60;59.60
7502;DHT22;3792;47.740;7.606;2023-04-06T15:04:35;14.50;58.10
7502;DHT22;3792;47.740;7.606;2023-04-06T15:07:02;14.50;58.10
7502;DHT22;3792;47.740;7.606;2023-04-06T15:09:30;14.50;58.60
7502;DHT22;3792;47.740;7.606;2023-04-06T15:11:57;14.50;59.00
7502;DHT22;3792;47.740;7.606;2023-04-06T15:14:24;14.40;59.10
7502;DHT22;3792;47.740;7.606;2023-04-06T15:16:51;14.40;59.70
7502;DHT22;3792;47.740;7.606;2023-04-06T15:19:18;14.20;59.30
7502;DHT22;3792;47.740;7.606;2023-04-06T15:21:45;14.10;59.00
7502;DHT22;3792;47.740;7.606;2023-04-06T15:24:12;14.00;59.50
7502;DHT22;3792;47.740;7.606;2023-04-06T15:26:41;14.00;60.20
7502;DHT22;3792;47.740;7.606;2023-04-06T15:29:08;13.90;59.90
7502;DHT22;3792;47.740;7.606;2023-04-06T15:31:35;13.70;59.70
7502;DHT22;3792;47.740;7.606;2023-04-06T15:34:03;13.60;61.60
7502;DHT22;3792;47.740;7.606;2023-04-06T15:36:31;13.60;61.50
7502;DHT22;3792;47.740;7.606;2023-04-06T15:38:58;13.50;62.50
7502;DHT22;3792;47.740;7.606;2023-04-06T15:41:26;13.50;60.80
7502;DHT22;3792;47.740;7.606;2023-04-06T15:43:55;13.50;60.90
7502;DHT22;3792;47.740;7.606;2023-04-06T15:46:22;13.50;61.70
7502;DHT22;3792;47.740;7.606;2023-04-06T15:48:50;13.50;61.60
7502;DHT22;3792;47.740;7.606;2023-04-06T15:51:17;13.50;59.40
7502;DHT22;3792;47.740;7.606;2023-04-06T15:53:44;13.50;60.50
7502;DHT22;3792;47.740;7.606;2023-04-06T15:56:11;13.50;59.40
7502;DHT22;3792;47.740;7.606;2023-04-06T15:58:39;13.50;58.00
7502;DHT22;3792;47.740;7.606;2023-04-06T16:01:15;13.40;57.90
7502;DHT22;3792;47.740;7.606;2023-04-06T16:03:43;13.40;58.20
7502;DHT22;3792;47.740;7.606;2023-04-06T16:06:10;13.30;57.80
7502;DHT22;3792;47.740;7.606;2023-04-06T16:08:38;13.20;58.90
7502;DHT22;3792;47.740;7.606;2023-04-06T16:11:05;13.00;59.90
7502;DHT22;3792;47.740;7.606;2023-04-06T16:13:32;13.00;60.20